createdAt,value
2019-05-13T00:02:24.263Z,78.52
2019-05-13T00:04:55.095Z,78.53
2019-05-13T00:07:25.220Z,78.59
2019-05-13T00:09:54.434Z,78.87
2019-05-13T00:12:24.378Z,78.94
2019-05-13T00:14:53.986Z,78.88
2019-05-13T00:17:23.693Z,80.50
2019-05-13T00:19:53.237Z,81.12
2019-05-13T00:22:23.431Z,80.55
2019-05-13T00:24:54.231Z,79.98
2019-05-13T00:27:23.512Z,78.77
2019-05-13T00:29:53.859Z,79.12
2019-05-13T00:32:24.045Z,79.24
2019-05-13T00:34:53.445Z,79.52
2019-05-13T00:37:24.330Z,79.47
2019-05-13T00:39:54.396Z,79.85
2019-05-13T00:42:24.503Z,80.10
2019-05-13T00:44:53.311Z,80.47
2019-05-13T00:47:23.655Z,80.43
2019-05-13T00:49:54.109Z,80.59
2019-05-13T00:52:23.571Z,80.40
2019-05-13T00:54:53.496Z,80.54
2019-05-13T00:57:23.825Z,80.76
2019-05-13T00:59:54.120Z,82.08
2019-05-13T01:02:24.291Z,82.65
2019-05-13T01:04:55.034Z,82.56
2019-05-13T01:07:28.562Z,82.02
2019-05-13T01:09:56.263Z,81.85
2019-05-13T01:12:25.076Z,81.99
2019-05-13T01:15:00.422Z,82.13
2019-05-13T01:17:30.531Z,81.48
2019-05-13T01:20:04.312Z,82.02
2019-05-13T01:22:34.403Z,81.83
2019-05-13T01:25:04.520Z,82.39
2019-05-13T01:27:33.559Z,82.21
2019-05-13T01:30:04.106Z,82.05
2019-05-13T01:32:34.276Z,82.65
2019-05-13T01:35:04.610Z,82.69
2019-05-13T01:37:42.122Z,82.86
2019-05-13T01:40:05.078Z,82.74
2019-05-13T01:42:33.927Z,82.80
2019-05-13T01:45:04.693Z,82.76
2019-05-13T01:47:36.497Z,82.84
2019-05-13T01:50:05.624Z,82.81
2019-05-13T01:52:34.494Z,82.91
2019-05-13T01:55:04.652Z,83.07
2019-05-13T01:57:34.245Z,82.87
2019-05-13T02:00:04.668Z,82.39
2019-05-13T02:02:33.826Z,82.69
2019-05-13T02:05:04.010Z,83.00
2019-05-13T02:07:36.016Z,83.64
2019-05-13T02:10:05.397Z,83.56
2019-05-13T02:12:34.602Z,84.05
2019-05-13T02:15:04.457Z,84.44
2019-05-13T02:17:33.780Z,84.46
2019-05-13T02:20:06.984Z,84.21
2019-05-13T02:22:35.903Z,83.78
2019-05-13T02:25:07.036Z,84.01
2019-05-13T02:27:35.588Z,84.30
2019-05-13T02:30:05.659Z,84.14
2019-05-13T02:32:34.874Z,84.14
2019-05-13T02:35:03.441Z,83.54
2019-05-13T02:37:34.280Z,83.60
2019-05-13T02:40:03.492Z,83.87
2019-05-13T02:42:34.848Z,83.63
2019-05-13T02:45:03.996Z,84.19
2019-05-13T02:47:33.182Z,84.26
2019-05-13T02:50:05.114Z,83.68
2019-05-13T02:52:33.684Z,83.52
2019-05-13T02:55:04.053Z,83.52
2019-05-13T02:57:33.038Z,83.37
2019-05-13T03:00:04.093Z,83.21
2019-05-13T03:02:33.946Z,83.29
2019-05-13T03:05:04.989Z,83.67
2019-05-13T03:07:38.339Z,84.11
2019-05-13T03:10:07.612Z,83.37
2019-05-13T03:12:36.173Z,83.80
2019-05-13T03:15:05.254Z,83.65
2019-05-13T03:17:43.297Z,84.19
2019-05-13T03:20:16.505Z,83.39
2019-05-13T03:22:43.501Z,84.03
2019-05-13T03:25:13.171Z,84.48
2019-05-13T03:27:42.785Z,84.46
2019-05-13T03:30:16.342Z,84.50
2019-05-13T03:32:58.472Z,84.54
2019-05-13T03:35:25.746Z,84.72
2019-05-13T03:37:52.785Z,85.22
2019-05-13T03:40:23.094Z,84.93
2019-05-13T03:42:53.838Z,85.53
2019-05-13T03:45:26.020Z,85.86
2019-05-13T03:47:56.275Z,85.26
2019-05-13T03:50:30.356Z,84.38
2019-05-13T03:52:56.976Z,83.39
2019-05-13T03:55:27.943Z,83.99
2019-05-13T03:57:56.875Z,85.06
2019-05-13T04:00:26.169Z,85.82
2019-05-13T04:02:54.895Z,84.03
2019-05-13T04:05:27.475Z,80.90
2019-05-13T04:07:56.217Z,77.52
2019-05-13T04:10:24.768Z,74.67
2019-05-13T04:12:54.903Z,71.69
2019-05-13T04:15:23.988Z,69.26
2019-05-13T04:17:53.393Z,66.40
2019-05-13T04:20:23.520Z,64.91
2019-05-13T04:22:53.244Z,64.24
2019-05-13T04:25:23.445Z,63.82
2019-05-13T04:27:52.581Z,63.00
2019-05-13T04:30:22.315Z,61.70
2019-05-13T04:32:53.370Z,60.84
2019-05-13T04:35:25.261Z,60.20
2019-05-13T04:37:53.857Z,61.01
2019-05-13T04:40:23.463Z,60.86
2019-05-13T04:42:53.819Z,59.27
2019-05-13T04:45:24.206Z,59.57
2019-05-13T04:47:54.846Z,61.01
2019-05-13T04:50:25.165Z,59.75
2019-05-13T04:52:55.223Z,60.00
2019-05-13T04:55:25.362Z,61.33
2019-05-13T04:57:54.324Z,62.78
2019-05-13T05:00:49.923Z,64.17
2019-05-13T05:03:33.249Z,65.90
2019-05-13T05:06:05.619Z,67.75
2019-05-13T05:09:17.172Z,67.93
2019-05-13T05:12:23.246Z,68.04
2019-05-13T05:15:18.433Z,68.29
2019-05-13T05:18:02.850Z,67.92
2019-05-13T05:20:43.011Z,67.56
2019-05-13T05:23:42.301Z,67.47
2019-05-13T05:26:52.225Z,68.23
2019-05-13T05:29:32.122Z,68.92
2019-05-13T05:32:35.764Z,69.79
2019-05-13T05:35:52.049Z,70.25
2019-05-13T05:38:37.931Z,69.09
2019-05-13T05:41:07.957Z,69.03
2019-05-13T05:43:37.317Z,68.44
2019-05-13T05:46:05.876Z,68.54
2019-05-13T05:48:34.535Z,68.19
2019-05-13T05:51:03.133Z,68.88
2019-05-13T05:53:35.172Z,68.81
2019-05-13T05:56:06.211Z,67.69
2019-05-13T05:58:34.812Z,66.57
2019-05-13T06:01:05.725Z,66.19
2019-05-13T06:03:34.514Z,66.45
2019-05-13T06:06:05.443Z,66.46
2019-05-13T06:08:34.365Z,66.02
2019-05-13T06:11:03.340Z,66.16
2019-05-13T06:13:32.103Z,65.35
2019-05-13T06:16:04.390Z,64.99
2019-05-13T06:18:33.301Z,64.99
2019-05-13T06:21:04.425Z,64.48
2019-05-13T06:23:36.511Z,65.69
2019-05-13T06:26:05.254Z,66.47
2019-05-13T06:28:34.191Z,66.96
2019-05-13T06:31:07.155Z,66.88
2019-05-13T06:33:35.878Z,65.14
2019-05-13T06:36:04.887Z,65.61
2019-05-13T06:38:33.428Z,66.16
2019-05-13T06:41:09.051Z,65.27
2019-05-13T06:43:35.675Z,65.99
2019-05-13T06:46:05.585Z,64.54
2019-05-13T06:48:36.082Z,64.51
2019-05-13T06:51:04.823Z,64.02
2019-05-13T06:53:33.553Z,64.43
2019-05-13T06:56:02.145Z,63.73
2019-05-13T06:58:32.517Z,63.14
2019-05-13T07:01:03.786Z,62.61
2019-05-13T07:03:32.361Z,63.29
2019-05-13T07:06:02.698Z,63.42
2019-05-13T07:08:31.713Z,63.64
2019-05-13T07:11:16.673Z,64.25
2019-05-13T07:13:32.241Z,62.30
2019-05-13T07:16:01.434Z,61.58
2019-05-13T07:18:32.368Z,61.26
2019-05-13T07:21:03.738Z,60.70
2019-05-13T07:23:32.628Z,60.23
2019-05-13T07:26:03.355Z,60.77
2019-05-13T07:28:34.867Z,61.67
2019-05-13T07:31:04.029Z,60.58
2019-05-13T07:33:33.115Z,60.74
2019-05-13T07:36:03.040Z,59.61
2019-05-13T07:38:34.070Z,57.92
2019-05-13T07:41:03.642Z,58.83
2019-05-13T07:43:32.356Z,57.80
2019-05-13T07:46:02.445Z,57.49
2019-05-13T07:48:31.816Z,56.95
2019-05-13T07:51:04.443Z,57.08
2019-05-13T07:53:32.447Z,57.49
2019-05-13T07:56:01.942Z,56.14
2019-05-13T07:58:36.865Z,55.85
2019-05-13T08:01:02.541Z,56.40
2019-05-13T08:03:33.460Z,54.66
2019-05-13T08:06:02.315Z,55.86
2019-05-13T08:08:32.515Z,56.09
2019-05-13T08:11:04.291Z,56.44
2019-05-13T08:13:34.545Z,55.50
2019-05-13T08:16:04.811Z,54.33
2019-05-13T08:18:33.766Z,56.13
2019-05-13T08:21:03.096Z,55.40
2019-05-13T08:23:32.542Z,54.37
2019-05-13T08:26:02.175Z,53.84
2019-05-13T08:28:32.342Z,53.86
2019-05-13T08:31:02.664Z,53.70
2019-05-13T08:33:34.128Z,52.39
2019-05-13T08:36:04.173Z,54.14
2019-05-13T08:38:32.722Z,53.74
2019-05-13T08:41:02.241Z,52.97
2019-05-13T08:43:32.788Z,54.22
2019-05-13T08:46:02.260Z,53.79
2019-05-13T08:48:32.318Z,52.48
2019-05-13T08:51:03.215Z,51.77
2019-05-13T08:53:31.788Z,51.49
2019-05-13T08:56:02.111Z,49.41
2019-05-13T08:58:32.024Z,49.56
2019-05-13T09:01:02.128Z,47.87
2019-05-13T09:03:32.616Z,48.26
2019-05-13T09:06:02.843Z,47.92
2019-05-13T09:08:33.042Z,48.50
2019-05-13T09:11:04.865Z,48.54
2019-05-13T09:13:33.954Z,47.79
2019-05-13T09:16:03.972Z,47.13
2019-05-13T09:18:34.879Z,46.41
2019-05-13T09:21:03.610Z,45.89
2019-05-13T09:23:34.234Z,46.09
2019-05-13T09:26:02.912Z,44.82
2019-05-13T09:28:32.472Z,43.99
2019-05-13T09:31:01.966Z,45.11
2019-05-13T09:33:32.800Z,44.17
2019-05-13T09:36:02.357Z,44.55
2019-05-13T09:38:33.417Z,44.91
2019-05-13T09:41:04.144Z,43.29
2019-05-13T09:43:32.710Z,43.69
2019-05-13T09:46:01.950Z,42.60
2019-05-13T09:48:31.952Z,42.28
2019-05-13T09:51:02.423Z,42.34
2019-05-13T09:53:34.620Z,43.11
2019-05-13T09:56:03.522Z,42.91
2019-05-13T09:58:33.225Z,41.70
2019-05-13T10:01:05.248Z,41.56
2019-05-13T10:03:51.958Z,39.13
2019-05-13T10:06:06.297Z,39.01
2019-05-13T10:08:37.229Z,37.59
2019-05-13T10:11:06.170Z,37.53
2019-05-13T10:13:37.000Z,37.04
2019-05-13T10:16:06.130Z,36.80
2019-05-13T10:18:34.706Z,35.80
2019-05-13T10:21:03.463Z,31.76
2019-05-13T10:23:33.094Z,30.91
2019-05-13T10:26:04.596Z,31.50
2019-05-13T10:28:33.350Z,31.30
2019-05-13T10:31:03.687Z,33.71
2019-05-13T10:33:33.849Z,30.12
2019-05-13T10:36:03.897Z,29.21
2019-05-13T10:38:34.419Z,29.84
2019-05-13T10:41:03.885Z,30.57
2019-05-13T10:43:43.313Z,31.35
2019-05-13T10:46:12.843Z,31.60
2019-05-13T10:48:41.813Z,32.31
2019-05-13T10:51:12.876Z,30.61
2019-05-13T10:53:42.611Z,30.74
2019-05-13T10:56:11.250Z,32.02
2019-05-13T10:58:42.720Z,34.18
2019-05-13T11:01:11.605Z,33.72
2019-05-13T11:03:42.803Z,32.78
2019-05-13T11:06:11.684Z,34.93
2019-05-13T11:08:42.191Z,35.31
2019-05-13T11:11:12.970Z,34.70
2019-05-13T11:13:56.339Z,33.57
2019-05-13T11:16:13.037Z,32.90
2019-05-13T11:18:41.972Z,32.32
2019-05-13T11:21:13.076Z,32.49
2019-05-13T11:23:42.277Z,34.36
2019-05-13T11:26:13.067Z,34.32
2019-05-13T11:28:45.442Z,32.26
2019-05-13T11:31:14.343Z,32.40
2019-05-13T11:33:42.954Z,31.32
2019-05-13T11:36:19.012Z,32.55
2019-05-13T11:38:43.966Z,31.13
2019-05-13T11:41:14.193Z,31.39
2019-05-13T11:43:43.324Z,31.38
2019-05-13T11:46:11.867Z,30.54
2019-05-13T11:48:42.771Z,30.57
2019-05-13T11:51:13.357Z,31.37
2019-05-13T11:53:42.485Z,31.42
2019-05-13T11:56:11.543Z,32.72
2019-05-13T11:58:43.085Z,29.33
2019-05-13T12:01:12.054Z,29.90
2019-05-13T12:03:43.452Z,30.43
2019-05-13T12:06:15.982Z,29.88
2019-05-13T12:08:50.996Z,30.05
2019-05-13T12:11:15.575Z,29.09
2019-05-13T12:13:44.324Z,29.48
2019-05-13T12:16:13.165Z,28.59
2019-05-13T12:18:43.691Z,28.05
2019-05-13T12:21:13.616Z,27.68
2019-05-13T12:23:45.732Z,26.97
2019-05-13T12:26:14.454Z,25.84
2019-05-13T12:28:43.103Z,26.35
2019-05-13T12:31:12.298Z,24.91
2019-05-13T12:33:43.965Z,27.40
2019-05-13T12:36:18.000Z,26.68
